METAR Data
IDs: Format: Raw Decoded Include TAF

Data at: 1438 UTC 10 Aug 2022

KSAN 101351Z 29004KT 10SM FEW011 SCT250 23/20 A2998 RMK AO2 SLP152 T02330200
KSAN 101251Z 00000KT 10SM FEW011 SCT250 22/19 A2997 RMK AO2 SLP147 T02220194
KSAN 101151Z 00000KT 10SM FEW011 SCT250 23/19 A2996 RMK AO2 SLP146 T02280194 10233 20222 57002
KSAN 101051Z 00000KT 10SM FEW011 SCT250 22/19 A2996 RMK AO2 SLP146 T02220194
KSAN 100951Z 00000KT 10SM FEW011 FEW250 22/19 A2997 RMK AO2 SLP148 T02220194
KSAN 100851Z 30003KT 10SM FEW011 FEW250 23/20 A2997 RMK AO2 SLP148 T02280200 58004
KSAN 100751Z 31004KT 10SM FEW011 SCT250 23/20 A2997 RMK AO2 SLP149 T02280200 402940211
KSAN 100706Z 30003KT 10SM SCT011 SCT250 23/20 A2998 RMK AO2 T02330200
KSAN 100651Z 32003KT 10SM BKN011 BKN250 23/20 A2999 RMK AO2 SLP153 T02280200
KSAN 100649Z 32004KT 10SM BKN011 BKN250 23/20 A2999 RMK AO2
KSAN 100551Z 30003KT 10SM SCT012 SCT250 23/20 A2998 RMK AO2 SLP152 T02330200 10294 20233 50016
KSAN 100451Z 30003KT 10SM SCT012 BKN250 23/20 A2998 RMK AO2 SLP152 T02330200
KSAN 100351Z 29004KT 10SM FEW010 SCT150 BKN250 24/20 A2996 RMK AO2 SLP143 T02390200
KSAN 100251Z 28003KT 10SM FEW010 SCT150 BKN250 24/19 A2993 RMK AO2 SLP135 T02440189 53007
KSAN 100151Z 28005KT 10SM FEW010 FEW150 BKN250 27/18 A2991 RMK AO2 SLP129 T02670178
KSAN 100051Z 23006KT 10SM FEW060 FEW150 BKN250 27/17 A2991 RMK AO2 SLP127 T02720172
KSAN 092351Z 20006KT 10SM FEW060 SCT130 BKN250 29/16 A2991 RMK AO2 SLP128 CB DSNT NE-SE T02890156 10294 20267 57010
KSAN 092251Z VRB04KT 10SM FEW060 FEW130 SCT200 28/19 A2992 RMK AO2 SLP130 CB DSNT E-SE T02780189
KSAN 092151Z COR 29007KT 10SM FEW010 FEW060 SCT130 SCT200 27/19 A2994 RMK AO2 SLP136 CB DSNT E-SE TCU DSNT NE T02720194
KSAN 092051Z 28008KT 10SM FEW010 SCT050 SCT150 27/19 A2994 RMK AO2 SLP138 TCU DSNT NE T02720194 58005
KSAN 091951Z 29009KT 10SM FEW010 SCT050 SCT150 27/19 A2996 RMK AO2 SLP143 TCU DSNT NE T02720194
KSAN 091851Z 29006KT 10SM FEW010 FEW050 FEW150 27/19 A2995 RMK AO2 SLP142 TCU DSNT NE T02720189
KSAN 091751Z 28006KT 10SM FEW010 FEW050 FEW250 27/19 A2996 RMK AO2 SLP144 T02670194 10267 20211 52002
KSAN 091651Z 28006KT 10SM FEW010 FEW150 27/20 A2995 RMK AO2 SLP142 T02670200
KSAN 091551Z 00000KT 10SM FEW010 FEW250 25/19 A2996 RMK AO2 SLP144 T02500194
KSAN 091451Z 00000KT 10SM FEW010 FEW250 23/19 A2995 RMK AO2 SLP142 T02330194 51014
KSAN 091351Z 00000KT 9SM FEW010 SCT190 SCT250 23/19 A2994 RMK AO2 SLP139 T02280194
KSAN 091251Z 00000KT 10SM FEW010 SCT190 SCT250 22/19 A2992 RMK AO2 SLP132 T02170194
KSAN 091151Z 00000KT 10SM FEW190 SCT250 22/19 A2991 RMK AO2 SLP128 T02170194 10233 20217 51000
KSAN 091051Z 31003KT 9SM BKN190 BKN250 22/19 A2991 RMK AO2 SLP128 T02170194
KSAN 090951Z 31003KT 9SM SCT190 BKN250 22/19 A2991 RMK AO2 SLP129 T02170194
KSAN 090851Z 31004KT 9SM FEW190 FEW250 22/19 A2991 RMK AO2 SLP128 T02170194 58012
KSAN 090751Z 30003KT 9SM FEW190 FEW250 22/19 A2993 RMK AO2 SLP135 T02220194 402720200
KSAN 090651Z 00000KT 10SM SCT190 SCT250 23/19 A2994 RMK AO2 SLP140 T02280194
KSAN 090551Z 00000KT 10SM BKN170 BKN250 23/19 A2995 RMK AO2 SLP140 60000 T02280194 10267 20228 51010
KSAN 090451Z VRB04KT 10SM FEW070 SCT170 BKN250 23/19 A2994 RMK AO2 RAE02 SLP138 P0000 T02330189
KSAN 090351Z 20003KT 10SM -RA SCT070 BKN110 BKN170 24/18 A2993 RMK AO2 RAB46 SLP135 P0000 T02390183
KSAN 090251Z VRB03KT 10SM FEW060 SCT170 BKN250 24/17 A2992 RMK AO2 SLP130 T02440172 51008